Time;durP1;ratioP1;P1;durP2;ratioP2;P2;SDS_P1;SDS_P2;PMS_P1;PMS_P2;Temp;Humidity;BMP_temperature;BMP_pressure;BME280_temperature;BME280_humidity;BME280_pressure;Samples;Min_cycle;Max_cycle;Signal;HPM_P1;HPM_P2
2023/09/24 00:00:29;;;;;;;2.15;1.00;;;;;;;12.21;54.64;92737.97;5015722;28;20097;-84
2023/09/24 00:02:54;;;;;;;2.05;1.20;;;;;;;12.20;54.24;92735.63;4995931;28;20037;-84
2023/09/24 00:05:20;;;;;;;5.72;1.30;;;;;;;12.18;55.49;92743.78;5021868;28;20050;-84
2023/09/24 00:07:46;;;;;;;2.33;1.20;;;;;;;12.22;53.70;92743.97;5008921;28;20034;-85
2023/09/24 00:10:12;;;;;;;2.42;1.20;;;;;;;12.19;54.33;92740.09;5004988;28;20046;-82
2023/09/24 00:12:38;;;;;;;5.30;1.35;;;;;;;12.12;55.58;92755.44;5021723;28;20432;-82
2023/09/24 00:15:04;;;;;;;3.25;1.10;;;;;;;12.07;54.96;92758.16;5021400;28;20026;-82
2023/09/24 00:17:30;;;;;;;2.63;1.13;;;;;;;11.99;55.56;92750.94;5023445;28;20121;-83
2023/09/24 00:19:55;;;;;;;3.15;1.20;;;;;;;11.94;55.78;92749.19;5024893;28;20068;-84
2023/09/24 00:22:22;;;;;;;3.00;1.30;;;;;;;11.96;55.11;92747.03;5022713;28;20030;-84
2023/09/24 00:24:49;;;;;;;2.83;1.42;;;;;;;12.07;54.71;92752.91;5024639;28;20053;-83
2023/09/24 00:27:15;;;;;;;2.10;1.20;;;;;;;11.99;54.96;92753.56;5026044;28;20042;-83
2023/09/24 00:29:41;;;;;;;1.92;1.00;;;;;;;12.00;55.04;92752.47;5026471;28;20398;-84
2023/09/24 00:32:07;;;;;;;2.67;1.20;;;;;;;11.95;55.55;92749.94;4986873;28;20037;-84
2023/09/24 00:34:33;;;;;;;2.22;1.20;;;;;;;11.92;54.91;92745.28;5020632;28;20439;-83
2023/09/24 00:36:59;;;;;;;8.18;1.45;;;;;;;11.96;53.77;92747.03;5024194;28;20081;-84
2023/09/24 00:39:24;;;;;;;2.72;1.20;;;;;;;11.98;54.03;92747.53;5000347;28;20043;-83
2023/09/24 00:41:50;;;;;;;2.75;1.23;;;;;;;11.96;55.17;92748.91;5017146;28;20049;-85
2023/09/24 00:44:16;;;;;;;2.40;1.10;;;;;;;11.88;55.53;92742.44;5032086;28;20111;-84
2023/09/24 00:46:44;;;;;;;2.10;1.20;;;;;;;11.86;55.50;92760.28;4987905;28;20116;-83
2023/09/24 00:49:15;;;;;;;2.47;1.20;;;;;;;11.79;56.69;92755.41;5030716;28;20038;-83
2023/09/24 00:51:41;;;;;;;6.43;1.35;;;;;;;11.79;57.21;92755.41;5019961;28;20067;-83
2023/09/24 00:54:09;;;;;;;3.97;1.38;;;;;;;11.77;56.35;92760.16;5018986;28;20064;-84
2023/09/24 00:56:35;;;;;;;1.88;0.98;;;;;;;11.78;56.29;92755.72;5017728;28;20046;-85
2023/09/24 00:59:00;;;;;;;2.80;1.25;;;;;;;11.83;55.34;92753.00;5018790;28;20061;-84
2023/09/24 01:01:29;;;;;;;1.45;1.05;;;;;;;11.75;56.41;92757.03;5007752;28;20041;-84
2023/09/24 01:03:55;;;;;;;2.28;1.15;;;;;;;11.72;55.83;92751.59;5020769;28;20050;-85
2023/09/24 01:06:21;;;;;;;2.47;1.13;;;;;;;11.92;54.60;92755.78;5020081;28;20408;-83
2023/09/24 01:08:48;;;;;;;3.03;1.20;;;;;;;11.87;55.00;92749.53;5020586;28;20450;-84
2023/09/24 01:11:14;;;;;;;2.78;1.17;;;;;;;11.87;56.05;92749.53;5011857;28;20049;-84
2023/09/24 01:13:44;;;;;;;5.43;1.95;;;;;;;11.71;56.03;92750.81;5003894;28;20029;-84
2023/09/24 01:16:12;;;;;;;3.67;1.30;;;;;;;11.61;56.49;92756.97;5019885;28;20132;-83
2023/09/24 01:18:39;;;;;;;3.58;1.30;;;;;;;11.66;56.43;92766.63;5023236;28;20083;-85
2023/09/24 01:21:11;;;;;;;2.65;1.13;;;;;;;11.66;55.84;92769.25;5006443;28;20041;-83
2023/09/24 01:23:37;;;;;;;2.33;1.20;;;;;;;11.64;55.68;92771.38;5019972;28;20471;-82
2023/09/24 01:26:03;;;;;;;2.20;1.20;;;;;;;11.57;56.10;92765.72;5022264;28;20104;-84
2023/09/24 01:28:30;;;;;;;3.10;1.40;;;;;;;11.59;55.59;92769.59;5028378;28;20030;-83
2023/09/24 01:30:56;;;;;;;5.03;1.45;;;;;;;11.67;54.62;92765.56;5004931;28;20362;-85
2023/09/24 01:33:23;;;;;;;2.35;1.00;;;;;;;11.63;55.42;92767.19;5019567;28;20034;-85
2023/09/24 01:35:49;;;;;;;1.70;1.00;;;;;;;11.73;55.28;92769.69;5002915;28;20044;-84
2023/09/24 01:38:16;;;;;;;1.92;1.08;;;;;;;11.71;55.51;92771.81;5023327;28;20038;-84
2023/09/24 01:40:41;;;;;;;2.58;1.33;;;;;;;11.67;55.33;92757.69;5027064;28;20052;-84
2023/09/24 01:43:08;;;;;;;2.55;1.20;;;;;;;11.64;55.70;92777.41;5018222;28;20045;-84
2023/09/24 01:45:34;;;;;;;4.70;1.40;;;;;;;11.64;54.97;92758.25;5016712;28;20042;-85
2023/09/24 01:48:03;;;;;;;2.58;1.10;;;;;;;11.60;55.05;92765.16;5018227;28;20072;-84
2023/09/24 01:50:32;;;;;;;3.17;1.10;;;;;;;11.70;54.50;92764.22;5005068;28;20404;-84
2023/09/24 01:53:00;;;;;;;1.90;1.00;;;;;;;11.69;54.99;92773.94;4996191;28;20038;-84
2023/09/24 01:55:27;;;;;;;3.05;1.27;;;;;;;11.70;54.10;92777.31;5019503;28;20433;-84
2023/09/24 01:57:53;;;;;;;2.25;1.30;;;;;;;11.74;54.56;92779.09;5022777;28;20050;-84
2023/09/24 02:00:26;;;;;;;2.05;1.20;;;;;;;11.74;54.66;92784.34;5020148;28;20044;-84
2023/09/24 02:02:59;;;;;;;2.80;1.30;;;;;;;11.67;54.63;92792.56;5019131;28;20120;-83
2023/09/24 02:05:30;;;;;;;2.83;1.08;;;;;;;11.65;55.52;92799.16;5013991;28;20077;-84
2023/09/24 02:07:56;;;;;;;2.20;1.05;;;;;;;11.67;54.93;92794.41;5026450;28;20041;-83
2023/09/24 02:10:22;;;;;;;2.75;1.20;;;;;;;11.64;56.12;92806.25;5031556;28;20045;-83
2023/09/24 02:12:48;;;;;;;3.25;1.45;;;;;;;11.60;55.63;92800.00;5002025;28;20046;-82
2023/09/24 02:15:18;;;;;;;2.92;1.48;;;;;;;11.53;56.40;92794.34;5018114;28;20034;-83
2023/09/24 02:17:50;;;;;;;3.40;1.30;;;;;;;11.52;55.96;92799.88;5008151;28;20033;-83
2023/09/24 02:22:50;;;;;;;2.97;1.30;;;;;;;11.46;56.11;92786.06;5032199;28;20033;-82
2023/09/24 02:25:19;;;;;;;2.55;1.40;;;;;;;11.53;56.33;92791.72;5026915;28;20035;-85
2023/09/24 02:27:46;;;;;;;2.30;1.33;;;;;;;11.48;56.13;92794.41;5031549;28;20555;-84
2023/09/24 02:30:13;;;;;;;2.97;1.10;;;;;;;11.43;57.05;92787.38;5018140;28;20076;-84
2023/09/24 02:32:40;;;;;;;3.65;1.50;;;;;;;11.42;56.94;92806.81;5018116;28;20038;-84
2023/09/24 02:35:11;;;;;;;2.72;1.30;;;;;;;11.33;57.38;92792.78;5021287;28;20052;-83
2023/09/24 02:37:38;;;;;;;2.08;1.20;;;;;;;11.27;58.20;92796.53;5016500;28;20060;-84
2023/09/24 02:40:27;;;;;;;2.65;1.35;;;;;;;11.24;58.24;92810.22;4998534;28;20516;-85
2023/09/24 02:42:58;;;;;;;2.45;1.30;;;;;;;11.23;58.04;92813.88;5019944;28;20083;-84
2023/09/24 02:45:32;;;;;;;3.28;1.40;;;;;;;11.28;56.20;92813.81;5010780;28;20065;-84
2023/09/24 02:47:58;;;;;;;2.08;0.90;;;;;;;11.38;57.56;92811.06;5015158;28;20128;-85
2023/09/24 02:50:27;;;;;;;2.08;1.10;;;;;;;11.28;57.27;92805.97;5026836;28;20496;-84
2023/09/24 02:53:03;;;;;;;3.42;1.48;;;;;;;11.31;56.60;92828.97;5000572;28;20500;-84
2023/09/24 02:55:29;;;;;;;3.15;1.10;;;;;;;11.32;56.87;92833.16;5018883;28;20029;-85
2023/09/24 02:57:56;;;;;;;3.10;1.30;;;;;;;11.38;56.27;92828.63;5022477;28;20040;-83
2023/09/24 03:00:27;;;;;;;2.70;1.23;;;;;;;11.31;56.64;92815.88;5009530;28;20408;-84
2023/09/24 03:02:55;;;;;;;2.92;1.17;;;;;;;11.24;57.20;92820.69;5023709;28;20046;-85
2023/09/24 03:05:24;;;;;;;1.77;0.90;;;;;;;11.22;56.92;92802.63;4992731;28;20049;-85
2023/09/24 03:07:52;;;;;;;2.88;1.23;;;;;;;11.24;56.89;92818.06;5016824;28;20030;-83
2023/09/24 03:10:19;;;;;;;2.15;1.00;;;;;;;11.18;57.15;92819.19;5016847;28;20030;-83
2023/09/24 03:12:49;;;;;;;2.97;1.30;;;;;;;11.23;56.95;92825.13;5022441;28;20456;-82
2023/09/24 03:15:15;;;;;;;2.83;1.35;;;;;;;11.21;57.14;92813.38;5019563;28;20083;-83
2023/09/24 03:17:43;;;;;;;2.10;1.08;;;;;;;11.21;57.63;92826.47;5039846;28;20072;-82
2023/09/24 03:20:19;;;;;;;3.95;1.30;;;;;;;11.24;56.38;92828.56;5019383;28;20057;-83
2023/09/24 03:22:53;;;;;;;2.15;1.13;;;;;;;11.19;57.19;92818.91;5021316;28;20065;-83
2023/09/24 03:25:21;;;;;;;2.08;1.10;;;;;;;11.18;57.32;92825.19;5017635;28;20037;-82
2023/09/24 03:27:48;;;;;;;2.47;1.23;;;;;;;11.15;56.71;92827.63;5017932;28;20045;-83
2023/09/24 03:30:17;;;;;;;3.28;1.40;;;;;;;11.16;57.05;92835.19;5020529;28;20500;-85
2023/09/24 03:32:47;;;;;;;2.45;1.30;;;;;;;11.20;56.71;92840.66;5022479;28;20463;-84
2023/09/24 03:35:15;;;;;;;3.08;1.30;;;;;;;11.21;56.49;92832.50;5017455;28;20088;-84
2023/09/24 03:37:45;;;;;;;2.72;1.20;;;;;;;11.21;56.15;92839.56;5016518;28;20034;-84
2023/09/24 03:40:15;;;;;;;2.25;1.00;;;;;;;11.35;55.51;92847.53;5004940;28;20105;-84
2023/09/24 03:42:41;;;;;;;3.17;1.33;;;;;;;11.34;55.16;92846.75;5019821;28;20030;-84
2023/09/24 03:45:25;;;;;;;2.25;1.20;;;;;;;11.38;55.87;92847.75;5009200;28;20110;-84
2023/09/24 03:47:54;;;;;;;2.28;1.00;;;;;;;11.30;55.91;92851.00;5028782;28;20060;-84
2023/09/24 03:50:20;;;;;;;2.95;1.40;;;;;;;11.31;55.93;92851.78;5022342;28;20034;-85
2023/09/24 03:52:48;;;;;;;3.95;1.25;;;;;;;11.28;55.90;92863.63;5022425;28;20074;-84
2023/09/24 03:55:19;;;;;;;3.05;1.10;;;;;;;11.34;56.13;92870.34;5023487;28;20508;-85
2023/09/24 03:57:47;;;;;;;3.17;1.25;;;;;;;11.28;56.40;92875.91;4999718;28;20076;-84
2023/09/24 04:00:15;;;;;;;2.17;1.23;;;;;;;11.20;56.73;92864.22;5021692;28;20033;-86
2023/09/24 04:02:51;;;;;;;2.50;1.30;;;;;;;11.18;56.69;92868.97;5021171;28;20069;-82
2023/09/24 04:05:18;;;;;;;2.53;1.27;;;;;;;11.21;56.44;92871.00;5028444;28;20038;-82
2023/09/24 04:07:51;;;;;;;2.78;1.13;;;;;;;11.14;56.36;92867.97;5019680;28;20038;-82
2023/09/24 04:10:22;;;;;;;2.13;1.10;;;;;;;11.16;56.07;92866.63;5021438;28;20041;-82
2023/09/24 04:12:52;;;;;;;2.80;1.23;;;;;;;11.16;56.26;92871.09;5029028;28;20085;-82
2023/09/24 04:15:28;;;;;;;3.92;1.40;;;;;;;11.21;55.96;92889.34;5022635;28;20026;-82
2023/09/24 04:17:57;;;;;;;2.30;1.08;;;;;;;11.20;55.82;92874.72;5023752;28;20040;-82
2023/09/24 04:20:24;;;;;;;3.60;1.30;;;;;;;11.14;56.71;92867.97;5010209;28;20089;-82
2023/09/24 04:22:49;;;;;;;2.92;1.33;;;;;;;11.28;56.74;92889.03;5021532;28;20053;-83
2023/09/24 04:25:22;;;;;;;3.28;1.10;;;;;;;11.25;56.22;92879.88;5023728;28;20037;-84
2023/09/24 04:27:49;;;;;;;2.97;1.40;;;;;;;11.19;56.44;92881.00;5021045;28;20482;-83
2023/09/24 04:30:17;;;;;;;3.85;1.30;;;;;;;11.24;56.22;92894.84;5020937;28;20105;-83
2023/09/24 04:32:44;;;;;;;3.85;1.20;;;;;;;11.22;55.95;92896.19;5004169;28;20144;-83
2023/09/24 04:35:11;;;;;;;2.75;1.20;;;;;;;11.23;55.79;92892.47;5025847;28;20034;-83
2023/09/24 04:37:39;;;;;;;2.40;1.25;;;;;;;11.26;55.66;92897.19;5019054;28;20068;-84
2023/09/24 04:40:08;;;;;;;2.95;1.30;;;;;;;11.27;55.97;92908.44;5023730;28;20250;-84
2023/09/24 04:42:34;;;;;;;2.88;1.13;;;;;;;11.27;55.63;92897.97;5034289;28;20042;-83
2023/09/24 04:45:00;;;;;;;3.47;1.50;;;;;;;11.28;55.34;92899.50;5020607;28;20041;-84
2023/09/24 04:47:27;;;;;;;2.28;1.17;;;;;;;11.33;55.70;92902.09;5000686;28;20042;-84
2023/09/24 04:49:52;;;;;;;4.25;1.30;;;;;;;11.35;56.24;92902.56;5010248;28;20129;-83
2023/09/24 04:52:18;;;;;;;4.03;1.40;;;;;;;11.32;55.55;92909.16;5019094;28;20125;-82
2023/09/24 04:54:45;;;;;;;2.60;1.20;;;;;;;11.29;55.64;92911.56;5023327;28;20037;-83
2023/09/24 04:57:11;;;;;;;2.85;1.25;;;;;;;11.28;55.88;92910.78;5014959;28;20117;-82
2023/09/24 04:59:36;;;;;;;5.68;2.47;;;;;;;11.32;55.49;92911.00;5017474;28;20089;-85
2023/09/24 05:02:02;;;;;;;2.05;1.20;;;;;;;11.34;54.94;92924.59;5024984;28;20042;-84
2023/09/24 05:04:28;;;;;;;3.47;1.30;;;;;;;11.36;55.05;92923.25;5022733;28;20046;-84
2023/09/24 05:06:54;;;;;;;2.95;1.05;;;;;;;11.33;55.87;92915.19;5021218;28;20479;-83
2023/09/24 05:09:21;;;;;;;3.55;1.30;;;;;;;11.34;55.49;92914.91;5006131;28;20025;-83
2023/09/24 05:11:46;;;;;;;3.20;1.20;;;;;;;11.32;56.54;92913.63;5020766;28;20057;-83
2023/09/24 05:14:12;;;;;;;2.03;1.00;;;;;;;11.34;55.15;92925.38;5026461;28;20034;-84
2023/09/24 05:16:38;;;;;;;1.52;0.90;;;;;;;11.34;55.30;92914.91;5019842;28;20401;-84
2023/09/24 05:19:05;;;;;;;3.58;1.02;;;;;;;11.36;56.87;92914.63;5028202;28;20036;-85
2023/09/24 05:21:31;;;;;;;3.28;1.10;;;;;;;11.38;55.34;92915.91;5032446;28;20493;-84
2023/09/24 05:23:57;;;;;;;2.78;1.30;;;;;;;11.42;54.85;92916.91;5020091;28;20045;-85
2023/09/24 05:26:23;;;;;;;2.72;1.17;;;;;;;11.50;55.95;92927.81;5018255;28;20025;-87
2023/09/24 05:28:48;;;;;;;3.05;1.27;;;;;;;11.38;55.21;92913.28;5010840;28;20065;-84
2023/09/24 05:31:16;;;;;;;3.28;1.30;;;;;;;11.48;55.54;92920.25;5020514;28;20642;-86
2023/09/24 05:33:44;;;;;;;3.55;1.40;;;;;;;12.08;54.38;92915.28;5035766;28;20033;-87
2023/09/24 05:36:11;;;;;;;6.35;1.40;;;;;;;12.74;52.94;92928.47;5014163;28;20452;-87
2023/09/24 05:38:37;;;;;;;2.63;1.25;;;;;;;13.33;50.49;92921.69;4978291;28;20031;-87
2023/09/24 05:41:02;;;;;;;1.65;1.10;;;;;;;13.83;48.65;92931.50;5032722;28;20037;-87
2023/09/24 05:43:28;;;;;;;3.55;1.30;;;;;;;14.19;48.35;92917.56;5025080;28;20057;-86
2023/09/24 05:45:54;;;;;;;3.03;1.30;;;;;;;14.28;47.69;92921.03;5006143;28;20045;-85
2023/09/24 05:48:19;;;;;;;3.05;1.40;;;;;;;14.89;47.35;92920.72;5023924;28;20404;-85
2023/09/24 05:50:45;;;;;;;3.30;1.10;;;;;;;15.43;44.94;92920.66;5024977;28;20563;-86
2023/09/24 05:53:12;;;;;;;2.38;1.17;;;;;;;15.89;43.82;92920.16;5005488;28;20025;-86
2023/09/24 05:55:38;;;;;;;4.30;1.30;;;;;;;16.36;43.06;92920.38;5023052;28;20029;-86
2023/09/24 05:58:06;;;;;;;2.70;1.27;;;;;;;16.84;42.42;92911.50;5016192;28;20443;-86
2023/09/24 06:00:36;;;;;;;2.83;1.40;;;;;;;17.38;40.64;92928.78;5019561;28;20124;-86
2023/09/24 06:03:02;;;;;;;3.00;1.27;;;;;;;17.83;39.39;92922.97;5019628;28;20030;-86
2023/09/24 06:05:28;;;;;;;3.78;1.40;;;;;;;18.22;38.70;92923.69;5016755;28;20034;-86
2023/09/24 06:07:56;;;;;;;2.30;1.10;;;;;;;18.70;36.66;92923.16;5028762;28;20038;-86
2023/09/24 06:10:22;;;;;;;3.20;1.10;;;;;;;18.88;36.86;92921.13;5017986;28;20042;-86
2023/09/24 06:12:49;;;;;;;4.40;1.33;;;;;;;19.27;36.48;92928.88;5014369;28;20505;-86
2023/09/24 06:15:17;;;;;;;3.47;1.30;;;;;;;19.87;36.09;92929.28;4998885;28;20394;-84
2023/09/24 06:17:43;;;;;;;2.05;1.10;;;;;;;19.86;35.60;92935.69;5015224;28;20467;-84
2023/09/24 06:20:10;;;;;;;2.47;1.20;;;;;;;20.46;34.53;92931.41;5018866;28;20069;-84
2023/09/24 06:22:36;;;;;;;1.75;0.98;;;;;;;20.79;33.20;92930.44;5017930;28;20038;-82
2023/09/24 06:25:03;;;;;;;4.65;1.40;;;;;;;21.23;33.54;92930.44;5001746;28;20120;-80
2023/09/24 06:27:29;;;;;;;2.17;1.20;;;;;;;21.60;33.14;92931.03;5011379;28;20497;-80
2023/09/24 06:29:55;;;;;;;2.28;1.13;;;;;;;22.03;32.39;92933.91;5008207;28;20033;-81
2023/09/24 06:32:20;;;;;;;2.58;1.23;;;;;;;22.73;30.30;92938.47;5030204;28;20118;-80
2023/09/24 06:34:46;;;;;;;2.35;1.10;;;;;;;22.75;30.19;92930.88;5020220;28;20049;-80
2023/09/24 06:37:11;;;;;;;3.33;1.42;;;;;;;23.17;29.34;92938.22;5017657;28;20061;-80
2023/09/24 06:39:37;;;;;;;4.15;1.40;;;;;;;23.78;29.04;92933.94;5018640;28;20481;-82
2023/09/24 06:42:03;;;;;;;3.53;1.50;;;;;;;23.85;28.19;92936.72;5020161;28;20045;-81
2023/09/24 06:44:29;;;;;;;3.80;1.30;;;;;;;24.08;28.89;92935.91;5018708;28;20037;-80
2023/09/24 06:46:55;;;;;;;2.50;1.40;;;;;;;24.62;28.14;92940.13;5019048;28;20528;-82
2023/09/24 06:49:20;;;;;;;2.10;1.20;;;;;;;24.26;27.77;92938.84;5020305;28;20068;-82
2023/09/24 06:51:46;;;;;;;2.80;1.30;;;;;;;24.55;27.45;92934.69;5021458;28;20146;-80
2023/09/24 06:54:12;;;;;;;2.95;1.45;;;;;;;24.68;27.70;92937.91;5019190;28;20025;-81
2023/09/24 06:56:37;;;;;;;2.72;1.30;;;;;;;25.64;26.84;92943.53;5023014;28;20041;-80
2023/09/24 06:59:09;;;;;;;2.65;1.20;;;;;;;25.91;25.26;92941.47;5027225;28;20046;-81
2023/09/24 07:01:36;;;;;;;2.78;1.33;;;;;;;25.79;25.84;92943.66;5014812;28;20046;-81
2023/09/24 07:04:02;;;;;;;3.30;1.30;;;;;;;25.37;27.35;92955.53;5008928;28;20392;-80
2023/09/24 07:06:28;;;;;;;2.78;1.48;;;;;;;25.63;27.54;92951.97;5007955;28;20034;-80
2023/09/24 07:08:53;;;;;;;2.88;1.38;;;;;;;25.75;25.82;92954.34;5010093;28;20089;-80
2023/09/24 07:11:28;;;;;;;2.55;1.27;;;;;;;24.58;27.70;92955.34;4996104;28;20042;-80
2023/09/24 07:13:54;;;;;;;2.90;1.30;;;;;;;24.31;29.08;92946.53;5002260;28;20047;-79
2023/09/24 07:16:22;;;;;;;2.72;1.30;;;;;;;23.80;28.42;92950.38;4995302;28;20029;-80
2023/09/24 07:18:50;;;;;;;2.65;1.30;;;;;;;22.95;30.78;92939.66;5012483;28;20045;-79
2023/09/24 07:21:20;;;;;;;2.97;1.20;;;;;;;22.81;30.76;92947.41;5010233;28;20038;-78
2023/09/24 07:23:47;;;;;;;3.38;1.35;;;;;;;22.40;31.05;92949.59;5009133;28;20065;-78
2023/09/24 07:26:14;;;;;;;2.28;1.17;;;;;;;21.38;30.66;92956.31;5010191;28;20037;-78
2023/09/24 07:28:44;;;;;;;2.80;1.20;;;;;;;21.44;31.97;92954.22;5005262;28;20041;-79
2023/09/24 07:31:14;;;;;;;2.33;1.10;;;;;;;21.25;33.08;92957.50;5024125;28;20080;-78
2023/09/24 07:33:42;;;;;;;3.97;1.30;;;;;;;20.87;32.83;92945.47;5010626;28;20042;-78
2023/09/24 07:36:08;;;;;;;3.45;1.40;;;;;;;21.02;33.51;92951.97;4985651;28;20478;-81
2023/09/24 07:38:34;;;;;;;3.97;1.20;;;;;;;20.82;32.09;92951.03;5031195;28;20037;-82
2023/09/24 07:41:00;;;;;;;3.13;1.20;;;;;;;21.00;32.82;92952.28;5022630;28;20516;-82
2023/09/24 07:43:25;;;;;;;3.97;1.30;;;;;;;20.91;33.53;92938.38;5031259;28;20049;-82
2023/09/24 07:45:51;;;;;;;2.78;1.23;;;;;;;21.21;34.62;92951.34;5016020;28;20065;-81
2023/09/24 07:48:17;;;;;;;2.17;1.15;;;;;;;21.22;33.21;92955.53;5015971;28;20042;-82
2023/09/24 07:50:54;;;;;;;2.78;1.20;;;;;;;21.17;32.64;92948.56;5015197;28;20030;-82
2023/09/24 07:53:22;;;;;;;3.13;1.33;;;;;;;21.05;33.38;92951.28;5014414;28;20065;-82
2023/09/24 07:56:02;;;;;;;1.73;1.00;;;;;;;21.16;33.10;92948.91;5014122;28;20044;-82
2023/09/24 07:58:30;;;;;;;4.65;1.38;;;;;;;21.26;32.43;92956.41;5022921;28;20103;-82
2023/09/24 08:01:04;;;;;;;2.70;1.10;;;;;;;21.48;31.38;92951.63;5015989;28;20030;-83
2023/09/24 08:03:30;;;;;;;3.30;1.30;;;;;;;21.34;31.80;92947.47;5014836;28;20049;-82
2023/09/24 08:05:56;;;;;;;3.00;1.27;;;;;;;21.27;31.90;92952.59;5025648;28;20111;-82
2023/09/24 08:08:23;;;;;;;2.70;1.30;;;;;;;21.19;32.02;92964.22;5034849;28;20037;-82
2023/09/24 08:10:50;;;;;;;4.32;1.50;;;;;;;21.11;31.75;92965.88;5016369;28;20038;-80
2023/09/24 08:13:18;;;;;;;1.73;1.00;;;;;;;20.96;33.95;92966.63;5013457;28;20532;-81
2023/09/24 08:15:43;;;;;;;3.47;1.13;;;;;;;21.22;33.88;92966.19;5014767;28;20030;-81
2023/09/24 08:18:10;;;;;;;2.47;1.20;;;;;;;21.29;31.90;92961.03;5014795;28;20034;-82
2023/09/24 08:20:36;;;;;;;2.95;1.35;;;;;;;21.19;31.14;92972.19;5018304;28;20049;-82
2023/09/24 08:23:03;;;;;;;2.67;1.17;;;;;;;21.43;32.19;92955.31;5013836;28;20037;-82
2023/09/24 08:25:29;;;;;;;3.15;1.30;;;;;;;21.23;32.37;92972.28;5013777;28;20045;-82
2023/09/24 08:27:55;;;;;;;2.83;1.38;;;;;;;21.37;33.10;92965.44;5014069;28;20065;-82
2023/09/24 08:30:20;;;;;;;3.63;1.45;;;;;;;21.41;31.73;92968.19;5017121;28;20108;-82
2023/09/24 08:32:46;;;;;;;3.65;1.48;;;;;;;21.55;31.30;92968.56;5017206;28;20452;-82
2023/09/24 08:35:11;;;;;;;2.70;1.38;;;;;;;21.35;32.58;92974.88;5016574;28;20041;-82
2023/09/24 08:37:37;;;;;;;3.15;1.42;;;;;;;21.29;32.66;92971.69;5017274;28;20496;-82
2023/09/24 08:40:03;;;;;;;3.38;1.58;;;;;;;21.20;32.44;92960.41;4983943;28;20084;-82
2023/09/24 08:42:32;;;;;;;2.60;1.50;;;;;;;21.21;34.32;92975.28;5017825;28;20123;-82
2023/09/24 08:45:20;;;;;;;3.40;1.20;;;;;;;21.29;33.31;92971.69;5019614;28;20113;-82
2023/09/24 08:47:47;;;;;;;3.60;1.40;;;;;;;21.15;33.28;92966.00;5019119;28;20436;-82
2023/09/24 08:50:14;;;;;;;5.50;1.35;;;;;;;21.27;39.63;92967.81;5020304;28;20056;-82
2023/09/24 08:52:43;;;;;;;3.05;1.20;;;;;;;21.21;42.20;92977.94;5002056;28;20033;-81
2023/09/24 08:55:09;;;;;;;2.25;1.10;;;;;;;20.52;37.85;92967.28;5018591;28;20030;-80
2023/09/24 08:57:44;;;;;;;4.18;1.60;;;;;;;19.98;48.89;92966.81;5019221;28;20041;-82
2023/09/24 09:00:12;;;;;;;3.72;1.70;;;;;;;20.18;48.23;92964.03;5031694;28;20114;-81
2023/09/24 09:02:39;;;;;;;3.13;1.50;;;;;;;20.07;46.15;92962.16;5017785;28;20492;-83
2023/09/24 09:05:22;;;;;;;3.40;1.50;;;;;;;19.01;50.09;92964.41;5011725;28;20033;-83
2023/09/24 09:07:59;;;;;;;3.92;1.42;;;;;;;19.23;46.06;92962.47;5022211;28;20046;-83
2023/09/24 09:10:27;;;;;;;3.28;1.48;;;;;;;19.47;50.72;92967.06;5017580;28;20038;-83
2023/09/24 09:13:10;;;;;;;3.05;1.30;;;;;;;19.02;48.15;92973.13;5028136;28;20041;-81
2023/09/24 09:15:39;;;;;;;4.10;1.40;;;;;;;18.58;52.56;92970.06;5021296;28;20089;-82
2023/09/24 09:18:06;;;;;;;4.25;1.35;;;;;;;18.90;48.18;92966.69;5015838;28;20037;-82
2023/09/24 09:20:43;;;;;;;2.97;1.40;;;;;;;19.38;44.32;92969.03;5018003;28;20575;-83
2023/09/24 09:23:15;;;;;;;3.63;1.50;;;;;;;19.03;47.42;92959.56;5020089;28;20034;-83
2023/09/24 09:25:54;;;;;;;6.65;1.30;;;;;;;18.76;48.93;92958.22;5024160;28;20052;-83
2023/09/24 09:28:28;;;;;;;3.88;1.50;;;;;;;18.63;50.75;92959.25;5013102;28;20405;-82
2023/09/24 09:31:08;;;;;;;2.67;1.40;;;;;;;18.48;54.96;92958.72;5017937;28;20054;-82
2023/09/24 09:33:42;;;;;;;2.58;1.30;;;;;;;18.66;50.13;92963.91;5018940;28;20025;-83
2023/09/24 09:36:25;;;;;;;3.50;1.58;;;;;;;18.19;52.32;92964.06;5024680;28;20092;-82
2023/09/24 09:38:51;;;;;;;3.30;1.35;;;;;;;18.35;55.09;92957.13;5024838;28;20370;-83
2023/09/24 09:41:18;;;;;;;3.35;1.45;;;;;;;18.55;51.86;92960.09;5018006;28;20018;-82
2023/09/24 09:43:46;;;;;;;3.30;1.50;;;;;;;18.64;51.51;92969.53;5016554;28;20038;-83
2023/09/24 09:46:20;;;;;;;4.32;1.38;;;;;;;18.80;47.49;92959.16;5021074;28;20038;-82
2023/09/24 09:48:55;;;;;;;3.15;1.40;;;;;;;19.25;47.35;92962.91;5026638;28;20037;-83
2023/09/24 09:51:22;;;;;;;2.95;1.30;;;;;;;19.15;47.61;92956.16;5022471;28;20056;-82
2023/09/24 09:53:50;;;;;;;2.15;1.20;;;;;;;19.08;48.08;92967.31;5016660;28;20033;-82
2023/09/24 09:56:18;;;;;;;2.88;1.40;;;;;;;18.99;49.60;92963.19;5020040;28;20033;-83
2023/09/24 09:58:47;;;;;;;3.03;1.50;;;;;;;19.17;46.90;92959.25;5029215;28;20034;-83
2023/09/24 10:01:13;;;;;;;1.77;1.05;;;;;;;18.97;46.12;92965.38;5029660;28;20497;-83
2023/09/24 10:03:42;;;;;;;3.30;1.40;;;;;;;19.00;50.75;92956.78;5017732;28;20050;-82
2023/09/24 10:06:10;;;;;;;3.22;1.60;;;;;;;18.97;49.84;92962.72;5015975;28;20068;-82
2023/09/24 10:08:49;;;;;;;2.67;1.27;;;;;;;18.92;50.57;92964.47;5024466;28;20076;-82
2023/09/24 10:11:33;;;;;;;2.20;1.25;;;;;;;18.79;48.37;92962.13;5020412;28;20095;-83
2023/09/24 10:14:00;;;;;;;4.07;1.50;;;;;;;18.95;50.21;92954.31;5000379;28;20056;-82
2023/09/24 10:16:26;;;;;;;4.32;1.42;;;;;;;19.02;45.44;92955.34;5022747;28;20025;-82
2023/09/24 10:18:55;;;;;;;5.20;1.70;;;;;;;18.95;50.44;92957.75;5010434;28;20112;-82
2023/09/24 10:21:30;;;;;;;4.75;1.58;;;;;;;18.92;47.90;92961.84;5016937;28;20051;-82
2023/09/24 10:23:56;;;;;;;3.75;1.63;;;;;;;19.12;50.38;92973.50;5012727;28;20096;-81
2023/09/24 10:26:47;;;;;;;3.88;1.50;;;;;;;19.08;46.96;92969.19;5013872;28;20034;-81
2023/09/24 10:29:13;;;;;;;2.72;1.45;;;;;;;19.16;48.87;92967.53;5015769;28;20048;-81
2023/09/24 10:32:11;;;;;;;2.70;1.40;;;;;;;19.51;50.51;92965.31;5015440;28;20029;-82
2023/09/24 10:34:53;;;;;;;3.13;1.42;;;;;;;19.02;53.07;92962.53;5014130;28;20062;-83
2023/09/24 10:37:22;;;;;;;3.47;1.40;;;;;;;19.04;52.70;92962.97;5024811;28;20451;-81
2023/09/24 10:40:09;;;;;;;2.78;1.38;;;;;;;19.11;53.44;92965.88;5014945;28;20129;-82
2023/09/24 10:42:37;;;;;;;3.10;1.52;;;;;;;18.81;48.78;92958.03;5013742;28;20108;-83
2023/09/24 10:45:06;;;;;;;2.92;1.50;;;;;;;18.79;54.84;92968.19;5013710;28;20040;-83
2023/09/24 10:47:38;;;;;;;3.35;1.40;;;;;;;19.00;53.17;92964.72;5013959;28;20030;-82
2023/09/24 10:50:05;;;;;;;5.43;1.88;;;;;;;19.10;52.70;92969.63;5015088;28;20520;-82
2023/09/24 10:52:49;;;;;;;3.17;1.48;;;;;;;19.20;52.03;92963.91;5014100;28;20493;-81
2023/09/24 10:55:16;;;;;;;2.83;1.40;;;;;;;19.26;54.32;92956.53;5015602;28;20228;-81
2023/09/24 10:57:52;;;;;;;3.05;1.48;;;;;;;19.04;46.53;92965.63;5015068;28;20034;-82
2023/09/24 11:00:20;;;;;;;2.47;1.08;;;;;;;19.24;47.98;92964.81;5014763;28;20044;-82
2023/09/24 11:02:53;;;;;;;4.28;1.58;;;;;;;19.02;44.68;92955.34;5013542;28;20045;-82
2023/09/24 11:05:18;;;;;;;2.90;1.45;;;;;;;18.95;42.86;92964.94;5015299;28;20456;-81
2023/09/24 11:07:45;;;;;;;3.60;1.50;;;;;;;19.16;49.13;92962.22;5023248;28;20141;-82
2023/09/24 11:10:10;;;;;;;3.90;1.58;;;;;;;19.18;48.39;92965.34;5019463;28;20360;-82
2023/09/24 11:12:36;;;;;;;4.40;1.70;;;;;;;19.21;47.79;92968.13;5016384;28;20037;-82
2023/09/24 11:15:02;;;;;;;4.60;1.50;;;;;;;19.24;45.48;92964.81;5014655;28;20105;-82
2023/09/24 11:17:28;;;;;;;4.82;1.98;;;;;;;19.25;45.52;92963.72;5016048;28;20046;-82
2023/09/24 11:19:54;;;;;;;3.00;1.38;;;;;;;19.38;46.50;92966.38;5022561;28;20103;-83
2023/09/24 11:22:24;;;;;;;3.95;1.42;;;;;;;19.66;47.50;92967.31;5021667;28;20116;-82
2023/09/24 11:25:09;;;;;;;3.30;1.42;;;;;;;19.52;44.50;92964.19;5017775;28;20414;-83
2023/09/24 11:27:44;;;;;;;3.53;1.48;;;;;;;19.63;47.02;92967.97;5001324;28;20029;-83
2023/09/24 11:30:10;;;;;;;3.45;1.58;;;;;;;19.74;47.36;92966.44;5013679;28;20042;-82
2023/09/24 11:32:35;;;;;;;3.50;1.60;;;;;;;19.43;44.23;92960.84;5013204;28;20033;-82
2023/09/24 11:35:12;;;;;;;2.58;1.20;;;;;;;19.41;46.77;92960.41;5013505;28;20096;-81
2023/09/24 11:37:51;;;;;;;2.75;1.40;;;;;;;19.39;47.71;92959.97;5008937;28;20030;-83
2023/09/24 11:40:20;;;;;;;5.57;1.50;;;;;;;19.37;45.66;92962.19;5009559;28;20392;-83
2023/09/24 11:42:54;;;;;;;3.85;1.50;;;;;;;19.42;44.33;92964.63;5013752;28;20026;-81